createdAt,value
2018-02-21T00:02:14.700Z,23.47
2018-02-21T00:04:43.113Z,20.27
2018-02-21T00:07:11.516Z,22.90
2018-02-21T00:09:39.915Z,21.30
2018-02-21T00:12:08.343Z,22.03
2018-02-21T00:14:36.747Z,22.13
2018-02-21T00:17:05.166Z,21.80
2018-02-21T00:19:33.587Z,23.00
2018-02-21T00:22:01.985Z,22.83
2018-02-21T00:24:30.396Z,25.10
2018-02-21T00:26:58.790Z,25.37
2018-02-21T00:29:27.186Z,25.70
2018-02-21T00:31:56.362Z,25.73
2018-02-21T00:34:24.783Z,28.27
2018-02-21T00:36:53.172Z,28.20
2018-02-21T00:39:21.600Z,27.27
2018-02-21T00:41:50.759Z,26.03
2018-02-21T00:44:19.165Z,28.20
2018-02-21T00:46:47.579Z,26.67
2018-02-21T00:49:15.976Z,26.43
2018-02-21T00:51:44.394Z,25.93
2018-02-21T00:54:12.809Z,28.47
2018-02-21T00:56:42.027Z,27.90
2018-02-21T00:59:10.496Z,28.73
2018-02-21T01:01:39.049Z,27.67
2018-02-21T01:04:08.233Z,27.57
2018-02-21T01:06:36.642Z,28.10
2018-02-21T01:09:04.396Z,29.83
2018-02-21T01:11:33.635Z,30.27
2018-02-21T01:14:02.027Z,28.13
2018-02-21T01:16:30.427Z,27.20
2018-02-21T01:18:59.621Z,30.30
2018-02-21T01:21:28.020Z,29.07
2018-02-21T01:23:57.194Z,28.80
2018-02-21T01:26:25.602Z,28.77
2018-02-21T01:28:54.028Z,28.07
2018-02-21T01:31:22.428Z,27.97
2018-02-21T01:33:50.829Z,29.60
2018-02-21T01:36:20.021Z,29.97
2018-02-21T01:38:49.206Z,27.77
2018-02-21T01:41:18.380Z,27.47
2018-02-21T01:43:47.566Z,29.60
2018-02-21T01:46:15.974Z,29.93
2018-02-21T01:48:44.809Z,28.37
2018-02-21T01:51:13.244Z,28.70
2018-02-21T01:53:42.412Z,29.70
2018-02-21T01:56:10.853Z,29.57
2018-02-21T01:58:39.262Z,27.80
2018-02-21T02:01:07.666Z,28.63
2018-02-21T02:03:36.869Z,28.80
2018-02-21T02:06:07.080Z,30.10
2018-02-21T02:08:35.748Z,28.83
2018-02-21T02:11:04.162Z,28.80
2018-02-21T02:13:33.007Z,28.17
2018-02-21T02:16:01.407Z,28.67
2018-02-21T02:18:29.811Z,29.53
2018-02-21T02:20:58.642Z,27.70
2018-02-21T02:23:27.044Z,25.87
2018-02-21T02:25:55.450Z,28.43
2018-02-21T02:28:24.637Z,28.03
2018-02-21T02:30:53.466Z,26.70
2018-02-21T02:33:21.876Z,28.17
2018-02-21T02:35:50.280Z,27.43
2018-02-21T02:38:39.579Z,30.33
2018-02-21T02:41:07.687Z,26.93
2018-02-21T02:43:36.222Z,29.60
2018-02-21T02:46:04.712Z,29.73
2018-02-21T02:48:33.201Z,28.17
2018-02-21T02:51:01.694Z,31.77
2018-02-21T02:53:30.209Z,31.00
2018-02-21T02:55:58.705Z,31.70
2018-02-21T02:58:27.965Z,31.13
2018-02-21T03:00:56.456Z,30.33
2018-02-21T03:03:24.956Z,30.03
2018-02-21T03:05:53.433Z,28.17
2018-02-21T03:08:22.663Z,30.40
2018-02-21T03:10:51.945Z,29.03
2018-02-21T03:13:20.433Z,29.80
2018-02-21T03:15:49.738Z,27.57
2018-02-21T03:18:18.226Z,29.07
2018-02-21T03:20:47.531Z,29.10
2018-02-21T03:23:16.010Z,29.23
2018-02-21T03:25:44.681Z,29.30
2018-02-21T03:28:13.968Z,30.50
2018-02-21T03:30:42.492Z,27.53
2018-02-21T03:33:10.928Z,29.20
2018-02-21T03:35:40.196Z,29.07
2018-02-21T03:38:08.701Z,28.33
2018-02-21T03:40:37.180Z,27.67
2018-02-21T03:43:05.687Z,27.17
2018-02-21T03:45:34.145Z,26.47
2018-02-21T03:48:02.619Z,26.70
2018-02-21T03:50:31.114Z,27.57
2018-02-21T03:52:59.822Z,26.53
2018-02-21T03:55:32.944Z,25.07
2018-02-21T03:58:01.454Z,28.20
2018-02-21T04:00:30.710Z,26.93
2018-02-21T04:02:59.861Z,26.90
2018-02-21T04:05:29.075Z,26.13
2018-02-21T04:07:58.365Z,26.30
2018-02-21T04:10:26.854Z,24.30
2018-02-21T04:12:55.427Z,24.37
2018-02-21T04:15:24.652Z,24.40
2018-02-21T04:17:53.099Z,24.37
2018-02-21T04:20:21.585Z,25.90
2018-02-21T04:22:50.065Z,23.87
2018-02-21T04:25:18.360Z,24.40
2018-02-21T04:27:47.589Z,24.67
2018-02-21T04:30:16.856Z,25.53
2018-02-21T04:32:45.277Z,26.63
2018-02-21T04:35:13.748Z,26.67
2018-02-21T04:37:42.262Z,26.37
2018-02-21T04:40:10.553Z,25.50
2018-02-21T04:42:39.038Z,30.87
2018-02-21T04:45:08.278Z,26.80
2018-02-21T04:47:36.772Z,30.07
2018-02-21T04:50:05.261Z,29.13
2018-02-21T04:52:35.228Z,30.40
2018-02-21T04:55:09.094Z,31.10
2018-02-21T04:57:57.178Z,31.53
2018-02-21T05:00:25.456Z,30.67
2018-02-21T05:02:53.936Z,31.43
2018-02-21T05:05:23.164Z,31.70
2018-02-21T05:07:51.657Z,29.77
2018-02-21T05:10:20.890Z,31.67
2018-02-21T05:12:49.889Z,30.80
2018-02-21T05:15:22.364Z,33.00
2018-02-21T05:17:50.854Z,31.90
2018-02-21T05:20:19.328Z,32.97
2018-02-21T05:22:48.394Z,32.00
2018-02-21T05:25:16.911Z,34.57
2018-02-21T05:33:00.779Z,33.90
2018-02-21T05:38:52.579Z,36.80
2018-02-21T05:41:20.996Z,35.90
2018-02-21T05:43:50.119Z,35.73
2018-02-21T05:46:19.304Z,38.70
2018-02-21T05:48:48.950Z,37.03
2018-02-21T05:51:18.076Z,36.37
2018-02-21T05:53:46.491Z,36.97
2018-02-21T05:56:15.656Z,39.57
2018-02-21T05:58:44.092Z,41.17
2018-02-21T06:01:12.317Z,41.07
2018-02-21T06:03:40.727Z,40.13
2018-02-21T06:06:08.822Z,40.10
2018-02-21T06:08:37.244Z,40.10
2018-02-21T06:11:05.645Z,39.87
2018-02-21T06:13:34.845Z,41.73
2018-02-21T06:16:03.684Z,39.57
2018-02-21T06:18:32.138Z,41.10
2018-02-21T06:21:00.694Z,40.57
2018-02-21T06:23:29.875Z,42.77
2018-02-21T06:25:59.066Z,40.50
2018-02-21T06:28:27.464Z,42.07
2018-02-21T06:30:56.645Z,41.73
2018-02-21T06:33:25.839Z,41.17
2018-02-21T06:35:55.024Z,42.63
2018-02-21T06:38:23.460Z,40.33
2018-02-21T06:40:51.856Z,42.13
2018-02-21T06:43:21.231Z,40.97
2018-02-21T06:45:49.855Z,41.60
2018-02-21T06:48:19.225Z,40.47
2018-02-21T06:50:47.781Z,43.17
2018-02-21T06:53:16.179Z,42.43
2018-02-21T06:55:44.609Z,43.30
2018-02-21T06:58:13.057Z,42.23
2018-02-21T07:00:42.398Z,41.97
2018-02-21T07:03:11.574Z,44.40
2018-02-21T07:05:39.993Z,46.73
2018-02-21T07:08:08.417Z,45.80
2018-02-21T07:10:36.822Z,43.63
2018-02-21T07:13:05.244Z,41.33
2018-02-21T07:15:33.714Z,41.67
2018-02-21T07:18:02.252Z,40.40
2018-02-21T07:20:30.656Z,41.27
2018-02-21T07:22:59.087Z,39.17
2018-02-21T07:25:27.497Z,41.70
2018-02-21T07:27:56.650Z,39.50
2018-02-21T07:30:25.055Z,40.47
2018-02-21T07:32:53.472Z,42.83
2018-02-21T07:35:21.888Z,46.07
2018-02-21T07:37:51.163Z,45.43
2018-02-21T07:40:20.236Z,43.90
2018-02-21T07:42:49.112Z,41.60
2018-02-21T07:45:19.274Z,43.10
2018-02-21T07:47:47.361Z,43.47
2018-02-21T07:50:17.071Z,43.63
2018-02-21T07:52:45.494Z,41.13
2018-02-21T07:55:14.659Z,41.47
2018-02-21T07:57:42.900Z,42.93
2018-02-21T08:00:11.309Z,40.47
2018-02-21T08:02:39.736Z,42.27
2018-02-21T08:05:08.158Z,43.50
2018-02-21T08:07:36.564Z,43.37
2018-02-21T08:10:05.751Z,44.67
2018-02-21T08:12:34.156Z,42.43
2018-02-21T08:15:02.573Z,39.63
2018-02-21T08:17:30.980Z,40.63
2018-02-21T08:19:59.416Z,40.97
2018-02-21T08:22:27.810Z,39.10
2018-02-21T08:24:56.209Z,40.37
2018-02-21T08:27:24.649Z,41.07
2018-02-21T08:29:53.062Z,39.83
2018-02-21T08:32:21.454Z,39.10
2018-02-21T08:34:50.105Z,39.23
2018-02-21T08:37:18.504Z,37.40
2018-02-21T08:39:46.916Z,38.17
2018-02-21T08:42:16.281Z,40.27
2018-02-21T08:44:44.697Z,37.50
2018-02-21T08:47:13.117Z,39.63
2018-02-21T08:49:41.512Z,34.30
2018-02-21T08:52:09.927Z,33.00
2018-02-21T08:54:38.349Z,39.20
2018-02-21T08:57:06.742Z,37.37
2018-02-21T08:59:35.188Z,36.93
2018-02-21T09:02:03.592Z,35.57
2018-02-21T09:04:31.996Z,35.03
2018-02-21T09:07:01.176Z,36.73
2018-02-21T09:09:29.401Z,33.90
2018-02-21T09:11:58.150Z,36.03
2018-02-21T09:14:27.308Z,36.53
2018-02-21T09:16:55.747Z,34.03
2018-02-21T09:19:24.159Z,35.73
2018-02-21T09:21:52.571Z,37.60
2018-02-21T09:24:21.172Z,38.53
2018-02-21T09:26:50.341Z,38.13
2018-02-21T09:29:18.781Z,37.60
2018-02-21T09:31:47.200Z,37.67
2018-02-21T09:34:16.987Z,36.43
2018-02-21T09:36:45.404Z,37.40
2018-02-21T09:39:14.565Z,36.87
2018-02-21T09:41:42.981Z,37.43
2018-02-21T09:44:12.158Z,38.03
2018-02-21T09:46:40.552Z,35.83
2018-02-21T09:49:09.735Z,37.80
2018-02-21T09:51:38.141Z,37.73
2018-02-21T09:54:06.540Z,35.90
2018-02-21T09:56:34.961Z,36.40
2018-02-21T09:59:03.363Z,37.53
2018-02-21T10:01:32.578Z,38.60
2018-02-21T10:04:00.995Z,40.20
2018-02-21T10:06:29.399Z,39.43
2018-02-21T10:08:58.579Z,38.50
2018-02-21T10:11:26.980Z,36.37
2018-02-21T10:13:56.153Z,35.03
2018-02-21T10:16:24.583Z,35.83
2018-02-21T10:18:53.011Z,34.93
2018-02-21T10:21:21.402Z,32.93
2018-02-21T10:23:51.008Z,36.93
2018-02-21T10:26:20.196Z,35.20
2018-02-21T10:28:48.626Z,36.70
2018-02-21T10:31:17.023Z,36.67
2018-02-21T10:33:45.428Z,36.17
2018-02-21T10:36:13.832Z,37.03
2018-02-21T10:38:43.001Z,36.33
2018-02-21T10:41:11.396Z,38.10
2018-02-21T10:43:40.567Z,37.00
2018-02-21T10:46:08.970Z,40.13
2018-02-21T10:48:38.141Z,36.77
2018-02-21T10:51:06.558Z,37.57
2018-02-21T10:53:34.977Z,37.93
2018-02-21T10:56:03.384Z,37.07
2018-02-21T10:58:31.801Z,36.90
2018-02-21T11:01:05.642Z,35.10
2018-02-21T11:03:34.069Z,37.37
2018-02-21T11:06:02.498Z,37.43
2018-02-21T11:08:30.911Z,35.93
2018-02-21T11:11:00.090Z,39.53
2018-02-21T11:13:28.496Z,40.53
2018-02-21T11:15:57.656Z,39.37
2018-02-21T11:18:26.083Z,39.67
2018-02-21T11:20:54.484Z,38.50
2018-02-21T11:23:22.896Z,39.17
2018-02-21T11:25:51.301Z,40.60
2018-02-21T11:28:20.484Z,37.23
2018-02-21T11:30:49.377Z,38.70
2018-02-21T11:33:19.196Z,37.17
2018-02-21T11:35:48.430Z,35.53
2018-02-21T11:38:16.840Z,36.37
2018-02-21T11:40:45.232Z,36.07
2018-02-21T11:43:13.659Z,37.17
2018-02-21T11:45:42.056Z,38.23
2018-02-21T11:48:10.480Z,36.80
2018-02-21T11:50:39.647Z,34.83
2018-02-21T11:53:08.039Z,33.43
2018-02-21T11:55:36.469Z,36.33
2018-02-21T11:58:04.869Z,32.83
2018-02-21T12:00:33.294Z,32.57
2018-02-21T12:03:02.455Z,34.03
2018-02-21T12:05:30.868Z,27.63
2018-02-21T12:08:00.043Z,33.43
2018-02-21T12:10:28.467Z,37.07
2018-02-21T12:12:56.885Z,35.03
2018-02-21T12:15:25.296Z,33.90
2018-02-21T12:17:54.474Z,34.53
2018-02-21T12:20:22.886Z,35.70
2018-02-21T12:22:52.368Z,35.17
2018-02-21T12:25:21.539Z,33.00
2018-02-21T12:27:50.346Z,32.23
2018-02-21T12:30:20.135Z,34.03
2018-02-21T12:32:51.970Z,35.47
2018-02-21T12:35:21.107Z,32.97
2018-02-21T12:37:50.860Z,34.73
2018-02-21T12:40:26.438Z,36.10
2018-02-21T12:42:54.813Z,35.97
2018-02-21T12:45:23.220Z,33.73
2018-02-21T12:47:52.395Z,34.23
2018-02-21T12:50:21.741Z,32.60
2018-02-21T12:52:50.343Z,32.60
2018-02-21T12:55:18.919Z,31.40
2018-02-21T12:57:47.353Z,31.70
2018-02-21T13:00:16.336Z,32.67
2018-02-21T13:02:44.730Z,30.83
2018-02-21T13:05:13.926Z,30.90
2018-02-21T13:07:43.106Z,32.70
2018-02-21T13:10:12.320Z,31.77
2018-02-21T13:12:42.398Z,31.10
2018-02-21T13:15:10.797Z,32.33
2018-02-21T13:17:39.195Z,30.97
2018-02-21T13:20:08.387Z,32.50
2018-02-21T13:22:38.552Z,32.50
2018-02-21T13:25:06.948Z,32.13
2018-02-21T13:27:35.381Z,31.83
2018-02-21T13:30:03.777Z,31.10
2018-02-21T13:32:32.167Z,31.73
2018-02-21T13:35:00.576Z,29.87
2018-02-21T13:37:29.003Z,31.60
2018-02-21T13:39:57.401Z,28.07
2018-02-21T13:42:25.796Z,31.40
2018-02-21T13:44:54.216Z,30.43
2018-02-21T13:47:23.376Z,30.17
2018-02-21T13:49:52.735Z,28.13
2018-02-21T13:52:21.395Z,27.53
2018-02-21T13:54:50.950Z,27.87
2018-02-21T13:57:20.004Z,28.27
2018-02-21T13:59:48.399Z,28.77
2018-02-21T14:02:16.794Z,28.80
2018-02-21T14:04:45.190Z,28.47
2018-02-21T14:07:13.608Z,28.33
2018-02-21T14:09:42.010Z,28.27
2018-02-21T14:12:10.429Z,28.53
2018-02-21T14:14:38.810Z,28.07
2018-02-21T14:17:07.219Z,28.77
2018-02-21T14:19:35.634Z,29.90
2018-02-21T14:22:04.025Z,29.43
2018-02-21T14:24:33.204Z,28.10
2018-02-21T14:27:01.601Z,31.07
2018-02-21T14:29:29.853Z,27.60
2018-02-21T14:31:58.248Z,28.40
2018-02-21T14:34:26.635Z,29.73
2018-02-21T14:36:55.046Z,29.10
2018-02-21T14:39:24.249Z,29.33
2018-02-21T14:41:52.311Z,27.77
2018-02-21T14:44:22.008Z,26.03
2018-02-21T14:46:51.261Z,27.70
2018-02-21T14:49:20.134Z,27.63
2018-02-21T14:51:48.531Z,28.20
2018-02-21T14:54:16.926Z,26.20
2018-02-21T14:56:45.329Z,25.63
2018-02-21T14:59:14.501Z,26.87
2018-02-21T15:01:42.904Z,27.37
2018-02-21T15:04:12.075Z,26.50
2018-02-21T15:06:40.463Z,26.30
2018-02-21T15:09:08.862Z,26.73
2018-02-21T15:11:38.016Z,25.43
2018-02-21T15:14:06.449Z,24.87
2018-02-21T15:16:34.854Z,24.47
2018-02-21T15:19:03.266Z,25.87
2018-02-21T15:21:31.677Z,27.43
2018-02-21T15:23:59.745Z,26.47
2018-02-21T15:26:28.928Z,27.03
2018-02-21T15:28:58.094Z,26.83
2018-02-21T15:31:26.499Z,25.57
2018-02-21T15:33:55.673Z,26.07
2018-02-21T15:36:24.089Z,26.00
2018-02-21T15:38:52.519Z,26.57
2018-02-21T15:41:21.658Z,26.03
2018-02-21T15:43:49.863Z,24.90
2018-02-21T15:46:18.259Z,25.33
2018-02-21T15:48:46.673Z,24.57
2018-02-21T15:51:15.848Z,25.40
2018-02-21T15:53:44.258Z,26.30
2018-02-21T15:56:13.412Z,25.40
2018-02-21T15:58:41.828Z,24.60
2018-02-21T16:01:11.027Z,25.17
2018-02-21T16:03:40.203Z,25.77
2018-02-21T16:06:08.623Z,24.30
2018-02-21T16:08:37.031Z,25.97
2018-02-21T16:11:05.423Z,26.03
2018-02-21T16:13:33.828Z,26.50
2018-02-21T16:16:02.989Z,26.30
2018-02-21T16:18:31.416Z,25.70
2018-02-21T16:21:00.020Z,25.07
2018-02-21T16:23:28.560Z,25.63
2018-02-21T16:25:57.747Z,25.63
2018-02-21T16:28:26.126Z,25.90
2018-02-21T16:30:54.532Z,24.77
2018-02-21T16:33:22.925Z,25.47
2018-02-21T16:35:51.330Z,25.10
2018-02-21T16:38:20.827Z,26.13
2018-02-21T16:40:49.231Z,25.97
2018-02-21T16:43:17.639Z,25.07
2018-02-21T16:45:46.815Z,25.43
2018-02-21T16:48:15.208Z,25.90
2018-02-21T16:50:44.377Z,24.63
2018-02-21T16:53:12.799Z,24.43
2018-02-21T16:55:41.201Z,25.03
2018-02-21T16:58:09.623Z,24.50
2018-02-21T17:00:38.055Z,24.53
2018-02-21T17:03:07.433Z,24.77
2018-02-21T17:05:36.717Z,24.83
2018-02-21T17:08:05.913Z,24.67
2018-02-21T17:10:35.079Z,24.87
2018-02-21T17:13:03.470Z,41.83
2018-02-21T17:15:31.941Z,41.97
2018-02-21T17:18:01.114Z,34.83
2018-02-21T17:20:29.717Z,32.90
2018-02-21T17:22:58.150Z,31.87
2018-02-21T17:25:26.562Z,26.80
2018-02-21T17:27:54.997Z,26.40
2018-02-21T17:30:24.184Z,25.13
2018-02-21T17:32:52.599Z,24.20
2018-02-21T17:35:21.821Z,27.00
2018-02-21T17:37:50.270Z,24.10
2018-02-21T17:40:18.670Z,27.60
2018-02-21T17:42:47.086Z,24.77
2018-02-21T17:45:16.270Z,24.00
2018-02-21T17:47:45.449Z,22.33
2018-02-21T17:50:13.901Z,53.00
2018-02-21T17:52:42.305Z,37.07
2018-02-21T17:55:10.708Z,24.70
2018-02-21T17:57:39.897Z,27.43
2018-02-21T18:00:09.090Z,24.30
2018-02-21T18:02:38.266Z,23.97
2018-02-21T18:05:06.671Z,22.87
2018-02-21T18:07:35.857Z,21.67
2018-02-21T18:10:04.692Z,22.10
2018-02-21T18:12:33.116Z,20.50
2018-02-21T18:15:01.513Z,23.03
2018-02-21T18:17:30.674Z,23.73
2018-02-21T18:19:59.102Z,23.50
2018-02-21T18:22:27.505Z,23.87
2018-02-21T18:24:55.928Z,27.90
2018-02-21T18:27:24.319Z,29.63
2018-02-21T18:29:53.571Z,25.87
2018-02-21T18:32:22.872Z,21.53
2018-02-21T18:34:51.428Z,20.93
2018-02-21T18:37:20.058Z,21.20
2018-02-21T18:39:47.931Z,21.30
2018-02-21T18:42:16.344Z,20.73
2018-02-21T18:44:44.748Z,21.63
2018-02-21T18:47:13.159Z,21.17
2018-02-21T18:49:41.568Z,19.97
2018-02-21T18:52:09.980Z,20.30
2018-02-21T18:54:38.380Z,20.73
2018-02-21T18:57:06.807Z,21.37
2018-02-21T18:59:35.222Z,20.73
2018-02-21T19:02:03.625Z,21.33
2018-02-21T19:04:32.059Z,20.13
2018-02-21T19:07:00.461Z,20.63
2018-02-21T19:09:28.859Z,20.63
2018-02-21T19:11:57.287Z,20.40
2018-02-21T19:14:25.696Z,20.10
2018-02-21T19:16:54.095Z,19.37
2018-02-21T19:19:22.536Z,20.87
2018-02-21T19:21:50.936Z,20.97
2018-02-21T19:24:19.370Z,19.80
2018-02-21T19:26:47.791Z,21.03
2018-02-21T19:29:16.205Z,20.83
2018-02-21T19:31:45.384Z,21.00
2018-02-21T19:34:14.566Z,22.30
2018-02-21T19:36:42.974Z,21.17
2018-02-21T19:39:12.148Z,20.77
2018-02-21T19:41:40.567Z,21.00
2018-02-21T19:44:08.976Z,20.87
2018-02-21T19:46:37.385Z,20.63
2018-02-21T19:49:05.786Z,21.83
2018-02-21T19:51:34.958Z,20.10
2018-02-21T19:54:03.386Z,22.23
2018-02-21T19:56:31.789Z,20.77
2018-02-21T19:59:00.240Z,21.07
2018-02-21T20:01:28.646Z,22.20
2018-02-21T20:03:57.051Z,21.40
2018-02-21T20:06:25.471Z,23.20
2018-02-21T20:08:53.867Z,22.13
2018-02-21T20:11:22.288Z,22.60
2018-02-21T20:13:51.470Z,21.47
2018-02-21T20:16:20.071Z,21.63
2018-02-21T20:18:49.411Z,19.87
2018-02-21T20:21:17.820Z,23.40
2018-02-21T20:23:46.234Z,23.83
2018-02-21T20:26:15.406Z,22.77
2018-02-21T20:28:43.812Z,23.23
2018-02-21T20:31:12.979Z,24.73
2018-02-21T20:33:41.409Z,23.60
2018-02-21T20:36:09.807Z,23.93
2018-02-21T20:38:38.221Z,24.03
2018-02-21T20:41:06.614Z,24.47
2018-02-21T20:43:35.058Z,23.37
2018-02-21T20:46:03.620Z,22.50
2018-02-21T20:48:32.013Z,24.83
2018-02-21T20:51:00.432Z,23.63
2018-02-21T20:53:29.614Z,23.57
2018-02-21T20:55:58.052Z,23.27
2018-02-21T20:58:26.446Z,23.93
2018-02-21T21:00:54.854Z,25.37
2018-02-21T21:03:23.280Z,24.77
2018-02-21T21:05:51.675Z,23.27
2018-02-21T21:08:20.103Z,23.97
2018-02-21T21:10:49.101Z,23.97
2018-02-21T21:13:18.260Z,24.57
2018-02-21T21:15:46.705Z,22.87
2018-02-21T21:18:16.047Z,23.40
2018-02-21T21:20:44.455Z,23.90
2018-02-21T21:23:13.637Z,24.13
2018-02-21T21:25:43.610Z,22.30
2018-02-21T21:28:12.006Z,23.40
2018-02-21T21:30:40.463Z,24.10
2018-02-21T21:33:08.869Z,23.87
2018-02-21T21:35:36.947Z,23.13
2018-02-21T21:38:05.353Z,21.63
2018-02-21T21:40:33.780Z,22.43
2018-02-21T21:43:02.181Z,21.67
2018-02-21T21:45:30.588Z,23.23
2018-02-21T21:47:59.002Z,21.47
2018-02-21T21:50:27.406Z,21.00
2018-02-21T21:52:55.829Z,22.37
2018-02-21T21:55:24.231Z,19.87
2018-02-21T21:57:52.642Z,21.23
2018-02-21T22:00:21.058Z,19.90
2018-02-21T22:02:49.477Z,19.20
2018-02-21T22:05:17.920Z,21.03
2018-02-21T22:07:46.333Z,19.57
2018-02-21T22:10:14.727Z,19.90
2018-02-21T22:12:44.144Z,19.77
2018-02-21T22:15:13.353Z,17.90
2018-02-21T22:17:43.291Z,19.57
2018-02-21T22:20:12.653Z,19.70
2018-02-21T22:22:41.356Z,17.33
2018-02-21T22:25:10.516Z,19.77
2018-02-21T22:27:38.258Z,18.80
2018-02-21T22:30:06.667Z,17.93
2018-02-21T22:32:35.079Z,18.93
2018-02-21T22:35:03.487Z,18.17
2018-02-21T22:37:31.906Z,18.40
2018-02-21T22:40:00.326Z,17.23
2018-02-21T22:42:28.734Z,19.33
2018-02-21T22:44:57.147Z,19.77
2018-02-21T22:47:26.312Z,18.83
2018-02-21T22:49:54.726Z,19.73
2018-02-21T22:52:23.908Z,15.40
2018-02-21T22:54:52.322Z,16.93
2018-02-21T22:57:20.764Z,18.83
2018-02-21T22:59:49.158Z,17.10
2018-02-21T23:02:18.332Z,18.53
2018-02-21T23:04:46.409Z,18.23
2018-02-21T23:07:14.807Z,17.90
2018-02-21T23:09:43.994Z,16.97
2018-02-21T23:12:14.175Z,17.03
2018-02-21T23:14:43.507Z,17.70
2018-02-21T23:17:12.690Z,17.53
2018-02-21T23:19:42.070Z,18.10
2018-02-21T23:22:10.537Z,18.23
2018-02-21T23:24:38.939Z,18.00
2018-02-21T23:27:07.365Z,18.23
2018-02-21T23:29:35.769Z,17.63
2018-02-21T23:32:04.210Z,18.37
2018-02-21T23:34:32.671Z,16.93
2018-02-21T23:37:01.229Z,15.03
2018-02-21T23:39:29.649Z,15.53
2018-02-21T23:41:58.821Z,15.87
2018-02-21T23:44:27.219Z,17.43
2018-02-21T23:46:56.387Z,18.23
2018-02-21T23:49:24.810Z,17.73
2018-02-21T23:51:53.215Z,16.90
2018-02-21T23:54:21.625Z,18.43
2018-02-21T23:56:50.032Z,16.83
2018-02-21T23:59:18.420Z,15.43
